Pauls Valley, OK

1:40 PM CST on December 18, 2014 (GMT -0600)
Pauls Valley Municipal | Change Station
CLOSE
Current Station
Airport
Location: Pauls Valley,
Elevation: 968 ft
Nearby Weather Stations

Elev 968 ft 34.71 °N, 97.22 °W | Updated 5 minutes ago

Overcast
Overcast
41 °F
Feels Like 41 °F
N
0
Wind Variable Wind from North

Today
High -- | Low -- °F
--% Chance of Precip.
Yesterday
High -- | Low -- °F
Precip. -- in
7:30 AM 5:20 PM
Waning Crescent, 12% visible
Pressure 30.14 in
Visibility 7.0 miles
Clouds Overcast 500 ft
Dew Point 40 °F
Humidity 96%
Rainfall 0.00 in
Snow Depth Not available.
UV 1 out of 12
Pollen 5.30 out of 12
Air Quality Not available.
Flu Activity Not available.
METAR KPVJ 181935Z AUTO 00000KT 7SM OVC005 05/05 A3014 RMK AO2 T00520046

More Conditions Fewer Conditions

Pressure 30.14 in
Visibility 7.0 miles
Clouds Overcast 500 ft
Dew Point 40 °F
Humidity 96%
Rainfall 0.00 in
Snow Depth Not available.
UV 1 out of 12
Pollen 5.30 out of 12
Air Quality Not available.
Flu Activity Not available.
METAR KPVJ 181935Z AUTO 00000KT 7SM OVC005 05/05 A3014 RMK AO2 T00520046

More Conditions Fewer Conditions

10-Day Weather Forecast

Almanac

Astronomy

Dec. 18, 2014 Rise Set
Actual Time
Civil Twilight
Nautical Twilight
Astronomical Twilight
Moon
Length of Visible Light
Length of Day
Tomorrow will be .
, % of the Moon is Illuminated

Today's Extremes

State Highs State Lows

Community

WunderPhotos

Upload Photos

1,778,985 photos uploaded!

WunderBlogs® & News

Nearby

Air Quality

  Air Quality AQ Index Pollutant
Not available.

Snow Depth

Station Depth Elevation

Earthquake Activity

City Distance Mag. Time & Date
Minimum magnitude displayed is 2.5.

Coastal Water Temperatures

Place Temperature

Nearby Weather Stations